sensor_id;sensor_type;location;lat;lon;timestamp;pressure;altitude;pressure_sealevel;temperature;humidity
42001;BME280;27689;48.390;10.856;2023-02-21T00:01:26;96571.78;;;7.79;74.37
42001;BME280;27689;48.390;10.856;2023-02-21T00:04:28;96568.34;;;7.67;74.89
42001;BME280;27689;48.390;10.856;2023-02-21T00:07:32;96567.84;;;7.62;74.82
42001;BME280;27689;48.390;10.856;2023-02-21T00:10:35;96576.16;;;7.67;74.79
42001;BME280;27689;48.390;10.856;2023-02-21T00:13:38;96569.84;;;7.59;74.82
42001;BME280;27689;48.390;10.856;2023-02-21T00:16:41;96562.75;;;7.50;74.95
42001;BME280;27689;48.390;10.856;2023-02-21T00:19:43;96562.88;;;7.59;75.05
42001;BME280;27689;48.390;10.856;2023-02-21T00:22:46;96566.06;;;7.63;74.46
42001;BME280;27689;48.390;10.856;2023-02-21T00:25:49;96563.97;;;7.68;74.07
42001;BME280;27689;48.390;10.856;2023-02-21T00:28:52;96558.25;;;7.63;74.12
42001;BME280;27689;48.390;10.856;2023-02-21T00:31:54;96562.88;;;7.59;74.50
42001;BME280;27689;48.390;10.856;2023-02-21T00:34:57;96555.03;;;7.59;74.41
42001;BME280;27689;48.390;10.856;2023-02-21T00:38:00;96552.22;;;7.51;74.00
42001;BME280;27689;48.390;10.856;2023-02-21T00:41:03;96557.91;;;7.56;73.74
42001;BME280;27689;48.390;10.856;2023-02-21T00:44:06;96557.53;;;7.50;74.08
42001;BME280;27689;48.390;10.856;2023-02-21T00:47:09;96553.28;;;7.49;74.25
42001;BME280;27689;48.390;10.856;2023-02-21T00:50:13;96556.94;;;7.46;74.60
42001;BME280;27689;48.390;10.856;2023-02-21T00:53:16;96555.50;;;7.42;74.31
42001;BME280;27689;48.390;10.856;2023-02-21T00:56:19;96554.19;;;7.25;74.62
42001;BME280;27689;48.390;10.856;2023-02-21T00:59:22;96557.47;;;7.16;75.22
42001;BME280;27689;48.390;10.856;2023-02-21T01:02:25;96546.81;;;7.08;75.15
42001;BME280;27689;48.390;10.856;2023-02-21T01:05:28;96542.47;;;6.85;76.27
42001;BME280;27689;48.390;10.856;2023-02-21T01:08:30;96546.69;;;6.75;76.58
42001;BME280;27689;48.390;10.856;2023-02-21T01:11:33;96544.06;;;6.63;76.69
42001;BME280;27689;48.390;10.856;2023-02-21T01:14:36;96551.69;;;6.54;76.72
42001;BME280;27689;48.390;10.856;2023-02-21T01:17:39;96551.75;;;6.41;77.36
42001;BME280;27689;48.390;10.856;2023-02-21T01:20:42;96550.03;;;6.29;77.76
42001;BME280;27689;48.390;10.856;2023-02-21T01:23:45;96560.16;;;6.21;77.57
42001;BME280;27689;48.390;10.856;2023-02-21T01:26:48;96552.81;;;6.02;78.44
42001;BME280;27689;48.390;10.856;2023-02-21T01:29:51;96539.66;;;5.92;78.52
42001;BME280;27689;48.390;10.856;2023-02-21T01:32:53;96546.91;;;5.87;79.21
42001;BME280;27689;48.390;10.856;2023-02-21T01:35:56;96548.78;;;5.85;79.13
42001;BME280;27689;48.390;10.856;2023-02-21T01:38:59;96539.63;;;5.80;78.78
42001;BME280;27689;48.390;10.856;2023-02-21T01:42:02;96537.78;;;5.69;78.89
42001;BME280;27689;48.390;10.856;2023-02-21T01:48:34;96535.31;;;5.55;80.14
42001;BME280;27689;48.390;10.856;2023-02-21T01:51:39;96535.53;;;5.39;83.74
42001;BME280;27689;48.390;10.856;2023-02-21T01:54:45;96526.78;;;5.27;84.83
42001;BME280;27689;48.390;10.856;2023-02-21T01:57:49;96537.81;;;5.31;82.94
42001;BME280;27689;48.390;10.856;2023-02-21T02:00:52;96528.25;;;5.31;81.49
42001;BME280;27689;48.390;10.856;2023-02-21T02:03:56;96521.59;;;5.15;86.08
42001;BME280;27689;48.390;10.856;2023-02-21T02:06:59;96514.13;;;5.10;86.76
42001;BME280;27689;48.390;10.856;2023-02-21T02:10:02;96521.81;;;5.12;85.22
42001;BME280;27689;48.390;10.856;2023-02-21T02:16:39;96515.97;;;5.08;86.20
42001;BME280;27689;48.390;10.856;2023-02-21T02:26:14;96521.16;;;4.95;84.07
42001;BME280;27689;48.390;10.856;2023-02-21T02:36:01;96509.72;;;4.73;87.54
42001;BME280;27689;48.390;10.856;2023-02-21T02:38:59;96512.34;;;4.73;87.68
42001;BME280;27689;48.390;10.856;2023-02-21T02:45:45;96501.59;;;4.65;86.93
42001;BME280;27689;48.390;10.856;2023-02-21T02:48:37;96499.31;;;4.60;89.36
42001;BME280;27689;48.390;10.856;2023-02-21T02:51:24;96506.06;;;4.63;87.72
42001;BME280;27689;48.390;10.856;2023-02-21T02:54:08;96507.00;;;4.61;86.65
42001;BME280;27689;48.390;10.856;2023-02-21T02:56:52;96512.50;;;4.57;86.32
42001;BME280;27689;48.390;10.856;2023-02-21T02:59:39;96506.97;;;4.49;88.59
42001;BME280;27689;48.390;10.856;2023-02-21T03:08:41;96509.72;;;4.33;86.39
42001;BME280;27689;48.390;10.856;2023-02-21T03:11:28;96518.09;;;4.24;89.19
42001;BME280;27689;48.390;10.856;2023-02-21T03:14:18;96506.16;;;4.21;88.06
42001;BME280;27689;48.390;10.856;2023-02-21T03:17:08;96514.88;;;4.20;86.77
42001;BME280;27689;48.390;10.856;2023-02-21T03:19:55;96513.72;;;4.12;87.10
42001;BME280;27689;48.390;10.856;2023-02-21T03:22:42;96508.72;;;4.09;86.82
42001;BME280;27689;48.390;10.856;2023-02-21T03:25:28;96518.63;;;4.02;86.38
42001;BME280;27689;48.390;10.856;2023-02-21T03:28:15;96514.88;;;3.94;86.67
42001;BME280;27689;48.390;10.856;2023-02-21T03:30:59;96515.97;;;3.89;86.61
42001;BME280;27689;48.390;10.856;2023-02-21T03:33:44;96512.72;;;3.86;86.90
42001;BME280;27689;48.390;10.856;2023-02-21T03:36:28;96510.53;;;3.80;87.24
42001;BME280;27689;48.390;10.856;2023-02-21T03:39:12;96498.78;;;3.74;88.53
42001;BME280;27689;48.390;10.856;2023-02-21T03:41:56;96510.09;;;3.73;89.42
42001;BME280;27689;48.390;10.856;2023-02-21T03:44:41;96509.91;;;3.62;91.18
42001;BME280;27689;48.390;10.856;2023-02-21T03:47:24;96504.19;;;3.57;93.24
42001;BME280;27689;48.390;10.856;2023-02-21T03:50:08;96506.44;;;3.49;94.71
42001;BME280;27689;48.390;10.856;2023-02-21T03:52:52;96505.03;;;3.43;95.65
42001;BME280;27689;48.390;10.856;2023-02-21T03:55:36;96500.69;;;3.44;96.46
42001;BME280;27689;48.390;10.856;2023-02-21T03:58:20;96493.47;;;3.49;95.78
42001;BME280;27689;48.390;10.856;2023-02-21T04:01:04;96496.63;;;3.54;94.64
42001;BME280;27689;48.390;10.856;2023-02-21T04:03:48;96499.00;;;3.57;94.04
42001;BME280;27689;48.390;10.856;2023-02-21T04:06:33;96490.63;;;3.53;93.50
42001;BME280;27689;48.390;10.856;2023-02-21T04:09:17;96493.09;;;3.55;92.42
42001;BME280;27689;48.390;10.856;2023-02-21T04:12:01;96485.22;;;3.42;92.16
42001;BME280;27689;48.390;10.856;2023-02-21T04:14:45;96483.78;;;3.38;94.39
42001;BME280;27689;48.390;10.856;2023-02-21T04:17:29;96486.16;;;3.41;93.14
42001;BME280;27689;48.390;10.856;2023-02-21T04:20:13;96476.38;;;3.32;95.70
42001;BME280;27689;48.390;10.856;2023-02-21T04:22:58;96482.22;;;3.36;98.67
42001;BME280;27689;48.390;10.856;2023-02-21T04:25:42;96486.56;;;3.35;98.36
42001;BME280;27689;48.390;10.856;2023-02-21T04:28:26;96482.94;;;3.38;97.41
42001;BME280;27689;48.390;10.856;2023-02-21T04:31:10;96492.00;;;3.31;99.09
42001;BME280;27689;48.390;10.856;2023-02-21T04:33:54;96487.41;;;3.22;100.00
42001;BME280;27689;48.390;10.856;2023-02-21T04:36:38;96493.84;;;3.29;99.16
42001;BME280;27689;48.390;10.856;2023-02-21T04:39:23;96490.63;;;3.25;98.75
42001;BME280;27689;48.390;10.856;2023-02-21T04:42:07;96486.66;;;3.19;100.00
42001;BME280;27689;48.390;10.856;2023-02-21T04:44:52;96495.16;;;3.22;97.26
42001;BME280;27689;48.390;10.856;2023-02-21T04:47:36;96502.19;;;3.19;98.86
42001;BME280;27689;48.390;10.856;2023-02-21T04:50:20;96495.25;;;3.20;96.87
42001;BME280;27689;48.390;10.856;2023-02-21T04:53:03;96492.47;;;3.23;96.54
42001;BME280;27689;48.390;10.856;2023-02-21T04:55:48;96494.59;;;3.16;96.21
42001;BME280;27689;48.390;10.856;2023-02-21T04:58:32;96491.91;;;3.18;95.38
42001;BME280;27689;48.390;10.856;2023-02-21T05:01:17;96487.41;;;3.07;94.71
42001;BME280;27689;48.390;10.856;2023-02-21T05:04:02;96495.25;;;3.06;95.46
42001;BME280;27689;48.390;10.856;2023-02-21T05:06:46;96494.59;;;3.02;94.61
42001;BME280;27689;48.390;10.856;2023-02-21T05:09:30;96494.59;;;3.02;94.42
42001;BME280;27689;48.390;10.856;2023-02-21T05:12:14;96487.94;;;2.98;94.32
42001;BME280;27689;48.390;10.856;2023-02-21T05:14:58;96497.56;;;2.96;94.32
42001;BME280;27689;48.390;10.856;2023-02-21T05:17:42;96487.47;;;2.92;94.77
42001;BME280;27689;48.390;10.856;2023-02-21T05:20:26;96471.84;;;2.79;95.87
42001;BME280;27689;48.390;10.856;2023-02-21T05:23:11;96487.38;;;2.79;96.98
42001;BME280;27689;48.390;10.856;2023-02-21T05:26:11;96477.84;;;2.79;96.98
42001;BME280;27689;48.390;10.856;2023-02-21T05:28:56;96477.03;;;2.79;97.28
42001;BME280;27689;48.390;10.856;2023-02-21T05:31:40;96477.19;;;2.76;96.65
42001;BME280;27689;48.390;10.856;2023-02-21T05:34:23;96479.88;;;2.74;99.48
42001;BME280;27689;48.390;10.856;2023-02-21T05:37:07;96478.19;;;2.73;98.72
42001;BME280;27689;48.390;10.856;2023-02-21T05:39:51;96471.38;;;2.72;98.59
42001;BME280;27689;48.390;10.856;2023-02-21T05:42:35;96473.22;;;2.70;100.00
42001;BME280;27689;48.390;10.856;2023-02-21T05:45:19;96468.03;;;2.70;99.62
42001;BME280;27689;48.390;10.856;2023-02-21T05:48:03;96480.88;;;2.72;100.00
42001;BME280;27689;48.390;10.856;2023-02-21T05:50:47;96474.97;;;2.70;100.00
42001;BME280;27689;48.390;10.856;2023-02-21T05:53:31;96474.41;;;2.65;100.00
42001;BME280;27689;48.390;10.856;2023-02-21T05:56:16;96481.06;;;2.69;100.00
42001;BME280;27689;48.390;10.856;2023-02-21T05:59:00;96478.38;;;2.70;100.00
42001;BME280;27689;48.390;10.856;2023-02-21T06:01:45;96479.13;;;2.72;100.00
42001;BME280;27689;48.390;10.856;2023-02-21T06:04:29;96494.56;;;2.74;100.00
42001;BME280;27689;48.390;10.856;2023-02-21T06:07:13;96480.03;;;2.71;100.00
42001;BME280;27689;48.390;10.856;2023-02-21T06:09:57;96480.88;;;2.72;100.00
42001;BME280;27689;48.390;10.856;2023-02-21T06:12:41;96480.97;;;2.70;100.00
42001;BME280;27689;48.390;10.856;2023-02-21T06:15:26;96489.94;;;2.65;100.00
42001;BME280;27689;48.390;10.856;2023-02-21T06:18:14;96502.66;;;2.68;100.00
42001;BME280;27689;48.390;10.856;2023-02-21T06:20:58;96508.66;;;2.68;100.00
42001;BME280;27689;48.390;10.856;2023-02-21T06:23:42;96490.09;;;2.62;100.00
42001;BME280;27689;48.390;10.856;2023-02-21T06:26:27;96498.97;;;2.58;100.00
42001;BME280;27689;48.390;10.856;2023-02-21T06:29:11;96496.38;;;2.58;100.00
42001;BME280;27689;48.390;10.856;2023-02-21T06:31:57;96498.69;;;2.62;100.00
42001;BME280;27689;48.390;10.856;2023-02-21T06:34:42;96500.44;;;2.62;100.00
42001;BME280;27689;48.390;10.856;2023-02-21T06:37:26;96501.94;;;2.66;100.00
42001;BME280;27689;48.390;10.856;2023-02-21T06:40:11;96488.28;;;2.64;100.00
42001;BME280;27689;48.390;10.856;2023-02-21T06:42:55;96500.06;;;2.68;100.00
42001;BME280;27689;48.390;10.856;2023-02-21T06:45:38;96508.41;;;2.73;100.00
42001;BME280;27689;48.390;10.856;2023-02-21T06:48:23;96516.91;;;2.75;100.00
42001;BME280;27689;48.390;10.856;2023-02-21T06:51:07;96514.00;;;2.81;100.00
42001;BME280;27689;48.390;10.856;2023-02-21T06:53:54;96516.09;;;2.89;100.00
42001;BME280;27689;48.390;10.856;2023-02-21T06:56:39;96515.56;;;2.98;100.00
42001;BME280;27689;48.390;10.856;2023-02-21T06:59:23;96502.34;;;3.02;100.00
42001;BME280;27689;48.390;10.856;2023-02-21T07:02:15;96517.53;;;3.08;100.00
42001;BME280;27689;48.390;10.856;2023-02-21T07:05:00;96518.16;;;3.12;100.00
42001;BME280;27689;48.390;10.856;2023-02-21T07:07:45;96513.47;;;3.18;100.00
42001;BME280;27689;48.390;10.856;2023-02-21T07:10:29;96525.75;;;3.29;100.00
42001;BME280;27689;48.390;10.856;2023-02-21T07:13:13;96519.75;;;3.29;100.00
42001;BME280;27689;48.390;10.856;2023-02-21T07:15:58;96533.06;;;3.37;100.00
42001;BME280;27689;48.390;10.856;2023-02-21T07:18:42;96532.78;;;3.41;100.00
42001;BME280;27689;48.390;10.856;2023-02-21T07:21:27;96526.78;;;3.55;100.00
42001;BME280;27689;48.390;10.856;2023-02-21T07:24:11;96524.44;;;3.65;100.00
42001;BME280;27689;48.390;10.856;2023-02-21T07:26:55;96532.38;;;3.76;100.00
42001;BME280;27689;48.390;10.856;2023-02-21T07:29:39;96528.28;;;3.86;100.00
42001;BME280;27689;48.390;10.856;2023-02-21T07:32:23;96525.22;;;3.94;100.00
42001;BME280;27689;48.390;10.856;2023-02-21T07:35:07;96526.13;;;4.07;100.00
42001;BME280;27689;48.390;10.856;2023-02-21T07:37:52;96524.22;;;4.23;100.00
42001;BME280;27689;48.390;10.856;2023-02-21T07:40:36;96532.13;;;4.34;99.38
42001;BME280;27689;48.390;10.856;2023-02-21T07:43:20;96539.19;;;4.59;97.75
42001;BME280;27689;48.390;10.856;2023-02-21T07:46:08;96532.16;;;4.74;97.41
42001;BME280;27689;48.390;10.856;2023-02-21T07:48:53;96534.69;;;4.88;96.27
42001;BME280;27689;48.390;10.856;2023-02-21T07:51:37;96542.56;;;4.99;96.57
42001;BME280;27689;48.390;10.856;2023-02-21T07:54:21;96534.78;;;5.12;96.84
42001;BME280;27689;48.390;10.856;2023-02-21T07:57:06;96526.88;;;5.39;95.03
42001;BME280;27689;48.390;10.856;2023-02-21T07:59:49;96522.19;;;5.69;92.94
42001;BME280;27689;48.390;10.856;2023-02-21T08:02:33;96509.44;;;6.03;89.56
42001;BME280;27689;48.390;10.856;2023-02-21T08:05:18;96517.25;;;6.26;89.15
42001;BME280;27689;48.390;10.856;2023-02-21T08:08:06;96516.97;;;6.42;87.45
42001;BME280;27689;48.390;10.856;2023-02-21T08:10:50;96517.81;;;6.66;86.72
42001;BME280;27689;48.390;10.856;2023-02-21T08:13:34;96518.81;;;6.88;86.75
42001;BME280;27689;48.390;10.856;2023-02-21T08:16:18;96518.16;;;7.08;84.14
42001;BME280;27689;48.390;10.856;2023-02-21T08:19:02;96517.72;;;7.25;83.58
42001;BME280;27689;48.390;10.856;2023-02-21T08:21:48;96516.28;;;7.43;83.84
42001;BME280;27689;48.390;10.856;2023-02-21T08:24:32;96512.97;;;7.64;84.15
42001;BME280;27689;48.390;10.856;2023-02-21T08:27:17;96507.25;;;7.92;81.16
42001;BME280;27689;48.390;10.856;2023-02-21T08:30:01;96508.63;;;8.19;78.76
42001;BME280;27689;48.390;10.856;2023-02-21T08:32:45;96511.47;;;8.38;80.55
42001;BME280;27689;48.390;10.856;2023-02-21T08:35:31;96518.22;;;8.72;77.64
42001;BME280;27689;48.390;10.856;2023-02-21T08:38:17;96521.69;;;8.94;73.97
42001;BME280;27689;48.390;10.856;2023-02-21T08:41:01;96521.66;;;9.05;74.20
42001;BME280;27689;48.390;10.856;2023-02-21T08:43:46;96513.06;;;9.24;72.36
42001;BME280;27689;48.390;10.856;2023-02-21T08:46:30;96505.66;;;9.49;70.06
42001;BME280;27689;48.390;10.856;2023-02-21T08:49:14;96511.03;;;9.78;69.64
42001;BME280;27689;48.390;10.856;2023-02-21T08:51:58;96510.09;;;9.89;69.90
42001;BME280;27689;48.390;10.856;2023-02-21T08:54:43;96507.66;;;10.07;66.63
42001;BME280;27689;48.390;10.856;2023-02-21T08:57:27;96502.47;;;10.26;64.62
42001;BME280;27689;48.390;10.856;2023-02-21T09:00:13;96513.81;;;10.36;63.45
42001;BME280;27689;48.390;10.856;2023-02-21T09:02:57;96502.25;;;10.58;64.06
42001;BME280;27689;48.390;10.856;2023-02-21T09:05:42;96504.31;;;10.64;62.21
42001;BME280;27689;48.390;10.856;2023-02-21T09:08:26;96508.31;;;10.78;62.89
42001;BME280;27689;48.390;10.856;2023-02-21T09:11:11;96506.66;;;10.86;62.52
42001;BME280;27689;48.390;10.856;2023-02-21T09:13:55;96503.75;;;10.89;60.93
42001;BME280;27689;48.390;10.856;2023-02-21T09:16:39;96503.59;;;11.01;61.41
42001;BME280;27689;48.390;10.856;2023-02-21T09:19:23;96504.13;;;11.14;61.56
42001;BME280;27689;48.390;10.856;2023-02-21T09:22:08;96504.13;;;11.14;58.79
42001;BME280;27689;48.390;10.856;2023-02-21T09:24:52;96501.81;;;11.11;61.04
42001;BME280;27689;48.390;10.856;2023-02-21T09:27:36;96501.06;;;11.28;61.34
42001;BME280;27689;48.390;10.856;2023-02-21T09:30:23;96500.78;;;11.31;59.48
42001;BME280;27689;48.390;10.856;2023-02-21T09:33:09;96504.25;;;11.41;58.97
42001;BME280;27689;48.390;10.856;2023-02-21T09:35:53;96496.47;;;11.49;60.06
42001;BME280;27689;48.390;10.856;2023-02-21T09:38:37;96488.41;;;11.70;59.07
42001;BME280;27689;48.390;10.856;2023-02-21T09:41:24;96492.38;;;11.84;60.51
42001;BME280;27689;48.390;10.856;2023-02-21T09:44:22;96493.06;;;12.13;57.29
42001;BME280;27689;48.390;10.856;2023-02-21T09:47:06;96491.72;;;12.27;56.73
42001;BME280;27689;48.390;10.856;2023-02-21T09:49:58;96482.13;;;12.53;57.04
42001;BME280;27689;48.390;10.856;2023-02-21T09:52:43;96490.03;;;12.71;56.66
42001;BME280;27689;48.390;10.856;2023-02-21T09:55:34;96488.75;;;12.75;54.22
42001;BME280;27689;48.390;10.856;2023-02-21T09:58:19;96488.50;;;12.51;54.53
42001;BME280;27689;48.390;10.856;2023-02-21T10:01:25;96488.22;;;12.54;55.58
42001;BME280;27689;48.390;10.856;2023-02-21T10:10:17;96496.91;;;13.25;52.71
42001;BME280;27689;48.390;10.856;2023-02-21T10:13:21;96496.19;;;13.41;54.98
42001;BME280;27689;48.390;10.856;2023-02-21T10:16:38;96487.13;;;13.69;51.90
42001;BME280;27689;48.390;10.856;2023-02-21T10:19:33;96488.78;;;13.70;50.23
42001;BME280;27689;48.390;10.856;2023-02-21T10:22:21;96486.16;;;13.70;51.08
42001;BME280;27689;48.390;10.856;2023-02-21T10:25:19;96486.13;;;13.62;51.11
42001;BME280;27689;48.390;10.856;2023-02-21T10:28:04;96487.78;;;13.63;51.39
42001;BME280;27689;48.390;10.856;2023-02-21T10:30:49;96492.47;;;13.86;50.44
42001;BME280;27689;48.390;10.856;2023-02-21T10:33:37;96479.19;;;13.95;49.61
42001;BME280;27689;48.390;10.856;2023-02-21T10:36:22;96483.38;;;14.14;49.23
42001;BME280;27689;48.390;10.856;2023-02-21T10:39:10;96482.66;;;14.46;47.57
42001;BME280;27689;48.390;10.856;2023-02-21T10:41:57;96488.16;;;14.85;48.43
42001;BME280;27689;48.390;10.856;2023-02-21T10:44:41;96478.78;;;15.07;46.91
42001;BME280;27689;48.390;10.856;2023-02-21T10:47:47;96486.19;;;15.20;46.86
42001;BME280;27689;48.390;10.856;2023-02-21T10:53:46;96477.25;;;15.29;45.35
42001;BME280;27689;48.390;10.856;2023-02-21T10:56:30;96467.34;;;15.39;45.54
42001;BME280;27689;48.390;10.856;2023-02-21T11:02:39;96466.25;;;15.88;44.66
42001;BME280;27689;48.390;10.856;2023-02-21T11:05:27;96459.28;;;15.96;45.85
42001;BME280;27689;48.390;10.856;2023-02-21T11:08:11;96457.75;;;16.09;43.31
42001;BME280;27689;48.390;10.856;2023-02-21T11:10:55;96452.69;;;15.92;43.76
42001;BME280;27689;48.390;10.856;2023-02-21T11:13:40;96446.19;;;15.71;44.29
42001;BME280;27689;48.390;10.856;2023-02-21T11:16:24;96443.16;;;15.82;44.86
42001;BME280;27689;48.390;10.856;2023-02-21T11:19:12;96442.66;;;15.87;44.47
42001;BME280;27689;48.390;10.856;2023-02-21T11:21:56;96438.56;;;16.15;45.49
42001;BME280;27689;48.390;10.856;2023-02-21T11:24:50;96430.78;;;16.14;43.02
42001;BME280;27689;48.390;10.856;2023-02-21T11:27:35;96424.06;;;16.03;43.60
42001;BME280;27689;48.390;10.856;2023-02-21T11:30:20;96422.78;;;15.99;43.45
42001;BME280;27689;48.390;10.856;2023-02-21T11:33:06;96417.50;;;15.99;43.45
42001;BME280;27689;48.390;10.856;2023-02-21T11:35:53;96409.94;;;15.88;43.16
42001;BME280;27689;48.390;10.856;2023-02-21T11:38:58;96411.88;;;16.02;42.77
42001;BME280;27689;48.390;10.856;2023-02-21T11:41:54;96402.28;;;16.01;43.83
42001;BME280;27689;48.390;10.856;2023-02-21T11:44:40;96398.44;;;16.12;43.46
42001;BME280;27689;48.390;10.856;2023-02-21T11:47:34;96399.06;;;16.14;43.32
42001;BME280;27689;48.390;10.856;2023-02-21T11:50:41;96387.66;;;16.44;43.63
42001;BME280;27689;48.390;10.856;2023-02-21T11:53:41;96386.22;;;16.56;43.12
42001;BME280;27689;48.390;10.856;2023-02-21T11:56:43;96383.88;;;16.84;43.40
42001;BME280;27689;48.390;10.856;2023-02-21T12:02:46;96375.56;;;16.19;43.49
42001;BME280;27689;48.390;10.856;2023-02-21T12:05:56;96369.94;;;16.22;44.00
42001;BME280;27689;48.390;10.856;2023-02-21T12:09:01;96369.47;;;16.41;42.70
42001;BME280;27689;48.390;10.856;2023-02-21T12:11:54;96366.59;;;16.51;42.16
42001;BME280;27689;48.390;10.856;2023-02-21T12:14:58;96365.88;;;16.57;41.20
42001;BME280;27689;48.390;10.856;2023-02-21T12:21:30;96361.91;;;16.38;43.05
42001;BME280;27689;48.390;10.856;2023-02-21T12:24:39;96343.38;;;16.61;43.03
42001;BME280;27689;48.390;10.856;2023-02-21T12:34:32;96330.44;;;17.18;43.04
42001;BME280;27689;48.390;10.856;2023-02-21T12:37:28;96327.03;;;17.54;43.53
42001;BME280;27689;48.390;10.856;2023-02-21T12:46:40;96313.97;;;17.38;41.65
42001;BME280;27689;48.390;10.856;2023-02-21T12:49:49;96305.75;;;17.77;42.02
42001;BME280;27689;48.390;10.856;2023-02-21T12:52:43;96294.13;;;17.78;41.10
42001;BME280;27689;48.390;10.856;2023-02-21T12:55:42;96292.19;;;18.08;41.09
42001;BME280;27689;48.390;10.856;2023-02-21T12:58:39;96290.31;;;18.23;40.93
42001;BME280;27689;48.390;10.856;2023-02-21T13:01:47;96280.84;;;17.92;40.91
42001;BME280;27689;48.390;10.856;2023-02-21T13:07:59;96278.03;;;18.01;41.09
42001;BME280;27689;48.390;10.856;2023-02-21T13:11:06;96275.13;;;17.74;40.58
42001;BME280;27689;48.390;10.856;2023-02-21T13:13:52;96259.19;;;18.10;39.69
42001;BME280;27689;48.390;10.856;2023-02-21T13:16:36;96255.00;;;18.01;40.51
42001;BME280;27689;48.390;10.856;2023-02-21T13:19:21;96259.38;;;18.09;39.88
42001;BME280;27689;48.390;10.856;2023-02-21T13:22:11;96254.63;;;17.83;39.88
42001;BME280;27689;48.390;10.856;2023-02-21T13:25:38;96254.38;;;17.99;40.35
42001;BME280;27689;48.390;10.856;2023-02-21T13:28:27;96235.91;;;18.33;41.76
42001;BME280;27689;48.390;10.856;2023-02-21T13:31:21;96242.38;;;18.03;39.73
42001;BME280;27689;48.390;10.856;2023-02-21T13:34:08;96230.53;;;17.63;41.10
42001;BME280;27689;48.390;10.856;2023-02-21T13:37:00;96231.09;;;17.73;40.81
42001;BME280;27689;48.390;10.856;2023-02-21T13:39:54;96220.44;;;18.09;41.64
42001;BME280;27689;48.390;10.856;2023-02-21T13:42:39;96223.16;;;17.58;39.89
42001;BME280;27689;48.390;10.856;2023-02-21T13:45:25;96224.69;;;17.32;40.66
42001;BME280;27689;48.390;10.856;2023-02-21T13:48:17;96205.09;;;17.47;41.33
42001;BME280;27689;48.390;10.856;2023-02-21T13:51:02;96215.63;;;17.41;41.14
42001;BME280;27689;48.390;10.856;2023-02-21T13:54:10;96207.16;;;17.52;41.56
42001;BME280;27689;48.390;10.856;2023-02-21T13:56:55;96189.84;;;17.49;41.20
42001;BME280;27689;48.390;10.856;2023-02-21T13:59:39;96190.31;;;17.38;41.16
42001;BME280;27689;48.390;10.856;2023-02-21T14:02:28;96189.16;;;17.26;42.14
42001;BME280;27689;48.390;10.856;2023-02-21T14:05:15;96190.53;;;17.22;42.13
42001;BME280;27689;48.390;10.856;2023-02-21T14:08:05;96181.00;;;17.06;42.02
42001;BME280;27689;48.390;10.856;2023-02-21T14:10:58;96181.63;;;16.93;42.76
42001;BME280;27689;48.390;10.856;2023-02-21T14:13:54;96178.00;;;16.95;42.54
42001;BME280;27689;48.390;10.856;2023-02-21T14:19:35;96171.34;;;16.84;43.63
42001;BME280;27689;48.390;10.856;2023-02-21T14:22:23;96163.22;;;16.85;44.17
42001;BME280;27689;48.390;10.856;2023-02-21T14:25:17;96168.69;;;16.54;42.60
42001;BME280;27689;48.390;10.856;2023-02-21T14:31:47;96160.84;;;16.61;44.03
42001;BME280;27689;48.390;10.856;2023-02-21T14:34:50;96160.38;;;16.43;43.16
42001;BME280;27689;48.390;10.856;2023-02-21T14:37:40;96160.75;;;16.25;43.30
42001;BME280;27689;48.390;10.856;2023-02-21T14:43:25;96157.09;;;16.26;43.90
42001;BME280;27689;48.390;10.856;2023-02-21T14:46:34;96145.88;;;16.24;43.93
42001;BME280;27689;48.390;10.856;2023-02-21T14:49:37;96148.78;;;16.14;44.35
42001;BME280;27689;48.390;10.856;2023-02-21T14:53:03;96143.38;;;16.08;45.83
42001;BME280;27689;48.390;10.856;2023-02-21T14:56:00;96138.84;;;16.02;45.66
42001;BME280;27689;48.390;10.856;2023-02-21T15:01:41;96126.44;;;16.02;44.25
42001;BME280;27689;48.390;10.856;2023-02-21T15:07:17;96132.22;;;15.83;44.51
42001;BME280;27689;48.390;10.856;2023-02-21T15:10:24;96118.25;;;15.74;45.08
42001;BME280;27689;48.390;10.856;2023-02-21T15:13:32;96118.25;;;15.74;46.63
42001;BME280;27689;48.390;10.856;2023-02-21T15:16:16;96109.78;;;15.64;44.96
42001;BME280;27689;48.390;10.856;2023-02-21T15:19:01;96114.69;;;15.67;45.35
42001;BME280;27689;48.390;10.856;2023-02-21T15:21:44;96113.41;;;15.63;45.79
42001;BME280;27689;48.390;10.856;2023-02-21T15:24:28;96116.88;;;15.64;46.59
42001;BME280;27689;48.390;10.856;2023-02-21T15:27:14;96112.00;;;15.52;47.73
42001;BME280;27689;48.390;10.856;2023-02-21T15:30:13;96114.69;;;15.44;47.82
42001;BME280;27689;48.390;10.856;2023-02-21T15:33:02;96114.50;;;15.46;47.87
42001;BME280;27689;48.390;10.856;2023-02-21T15:36:35;96119.84;;;15.38;46.70
42001;BME280;27689;48.390;10.856;2023-02-21T15:39:28;96109.66;;;15.35;47.41
42001;BME280;27689;48.390;10.856;2023-02-21T15:42:15;96112.97;;;15.29;48.04
42001;BME280;27689;48.390;10.856;2023-02-21T15:45:17;96113.69;;;15.23;48.26
42001;BME280;27689;48.390;10.856;2023-02-21T15:48:02;96107.34;;;15.09;46.86
42001;BME280;27689;48.390;10.856;2023-02-21T15:50:47;96103.56;;;15.11;47.41
42001;BME280;27689;48.390;10.856;2023-02-21T15:53:31;96108.19;;;15.09;47.71
42001;BME280;27689;48.390;10.856;2023-02-21T15:56:23;96106.06;;;15.05;47.29
42001;BME280;27689;48.390;10.856;2023-02-21T15:59:26;96099.38;;;14.94;47.43
42001;BME280;27689;48.390;10.856;2023-02-21T16:04:58;96098.22;;;14.89;47.20
42001;BME280;27689;48.390;10.856;2023-02-21T16:07:46;96090.84;;;14.84;47.42
42001;BME280;27689;48.390;10.856;2023-02-21T16:10:36;96094.28;;;14.85;47.60
42001;BME280;27689;48.390;10.856;2023-02-21T16:13:20;96095.81;;;14.79;47.61
42001;BME280;27689;48.390;10.856;2023-02-21T16:16:06;96087.78;;;14.72;48.24
42001;BME280;27689;48.390;10.856;2023-02-21T16:18:55;96087.13;;;14.70;49.15
42001;BME280;27689;48.390;10.856;2023-02-21T16:21:39;96086.19;;;14.63;48.81